Latest Coastal Weather Observations for Gabo Island

IDV60701

Issued at 10:11 pm EDT Wednesday 7 December 2022 (issued every 10 minutes, with the page automatically refreshed every 10 minutes)

About coastal observations | Map of coastal stations | Coastal observations for VIC | Marine services | Other Formats
Station Details ID: 084016 Name: GABO ISLAND LIGHTHOUSE Lat: -37.57 Lon: 149.92 Height: 15.0 m
Data from the previous 72 hours. | See also: Recent months at Gabo Island
Date/Time
EDT
Wind Sea
Height
m
Swell Vis
km
Cloud Weather Temp
°C
Press
MSL
hPa
Rain since
9am
mm
Dir  Spd
kts
Gust
kts
Height
m
Period
s
Dir
07/10:00pm SW 21 27 - - - - - - - 14.0 1003.3 13.8
07/09:30pm SW 21 25 - - - - - - - 14.6 1003.0 12.4
07/09:00pm SW 18 25 1 0.5 10 SE 5 Cloudy Thunderstorm 14.6 1003.6 12.0
07/08:30pm SSW 19 23 - - - - - - - 15.0 1002.8 10.4
07/08:13pm SSW 13 21 - - - - - - - 14.7 1001.9 10.4
07/08:00pm SW 8 11 - - - - - - - 14.7 1002.4 10.4
07/07:30pm SW 10 13 - - - - - - - 14.6 1001.7 7.0
07/07:00pm SW 13 17 - - - - - - - 15.5 1002.0 1.8
07/06:30pm SW 13 15 - - - - - - - 15.9 1002.0 1.6
07/06:00pm SSW 15 17 - - - - - - - 15.9 1001.7 1.6
07/05:30pm SW 12 15 - - - - - - - 16.3 1001.5 1.6
07/05:13pm SSW 13 25 - - - - - - - 16.9 1001.9 0.4
07/05:00pm SE 6 9 - - - - - - - 18.9 1001.3 0.0
07/04:30pm ENE 9 11 - - - - - - - 18.9 1000.7 0.0
07/04:00pm NE 11 12 - - - - - - - 19.5 1001.4 0.0
07/03:30pm NE 12 15 - - - - - - - 20.2 1001.3 0.0
07/03:00pm NE 11 13 1 2.0 10 SE 40 Partly cloudy Fine 20.4 1001.2 0.0
07/02:30pm NE 11 13 - - - - - - - 20.2 1001.4 0.0
07/02:00pm NE 11 13 - - - - - - - 21.2 1001.4 0.0
07/01:30pm NE 9 10 - - - - - - - 20.2 1001.7 0.0
07/01:00pm ENE 7 9 - - - - - - - 19.9 1001.9 0.0
07/12:30pm E 7 10 - - - - - - - 19.7 1002.2 0.0
07/12:00pm ENE 7 9 - - - - - - - 19.5 1002.5 0.0
07/11:30am E 6 8 - - - - - - - 19.3 1002.8 0.0
07/11:00am E 6 7 - - - - - - - 18.6 1003.1 0.0
07/10:30am ENE 6 7 - - - - - - - 18.1 1003.3 0.0
07/10:00am ENE 5 6 - - - - - - - 17.2 1003.5 0.0
07/09:30am ESE 3 5 - - - - - - - 17.0 1003.8 0.0
07/09:00am S 4 5 - - - - - - - 16.0 1004.2 0.2
07/08:30am S 3 4 - - - - - - - 15.3 1004.3 0.2
07/08:00am CALM 0 0 - - - - - - - 14.6 1004.2 0.2
07/07:30am CALM 0 0 - - - - - - - 13.7 1004.2 0.2
07/07:00am WNW 2 4 - - - - - - - 13.2 1004.4 0.2
07/06:30am W 6 7 - - - - - - - 12.7 1004.6 0.2
07/06:00am CALM 0 0 - - - - - - - 11.7 1004.7 0.2
07/05:30am N 4 5 - - - - - - - 10.9 1004.8 0.2
07/05:00am N 4 5 - - - - - - - 11.4 1004.7 0.2
07/04:30am NNW 6 7 - - - - - - - 10.8 1004.7 0.2
07/04:00am N 6 7 - - - - - - - 11.0 1004.9 0.2
07/03:30am NW 5 6 - - - - - - - 10.8 1004.9 0.2
07/03:00am NW 5 7 - - - - - - - 11.5 1005.3 0.2
07/02:30am WNW 6 7 - - - - - - - 11.5 1005.7 0.2
07/02:00am NW 6 8 - - - - - - - 11.5 1005.9 0.2
07/01:30am NW 6 8 - - - - - - - 11.5 1006.3 0.2
07/01:00am WNW 7 11 - - - - - - - 11.8 1006.8 0.2
07/12:30am NW 7 10 - - - - - - - 11.9 1006.9 0.2
07/12:00am WNW 10 13 - - - - - - - 12.8 1007.1 0.2
 
Date/Time
EDT
Wind Sea
Height
m
Swell Vis
km
Cloud Weather Temp
°C
Press
MSL
hPa
Rain since
9am
mm
Dir  Spd
kts
Gust
kts
Height
m
Period
s
Dir
06/11:30pm WNW 10 13 - - - - - - - 12.6 1007.4 0.2
06/11:00pm W 11 14 - - - - - - - 13.3 1007.6 0.2
06/10:30pm W 11 14 - - - - - - - 13.8 1007.7 0.2
06/10:00pm WSW 13 18 - - - - - - - 14.4 1008.0 0.2
06/09:30pm SW 17 20 - - - - - - - 14.9 1007.8 0.2
06/09:00pm SW 19 24 - - - - - - - 14.8 1007.7 0.2
06/08:30pm SW 20 23 - - - - - - - 15.0 1007.7 0.2
06/08:00pm SW 22 27 - - - - - - - 15.1 1007.5 0.2
06/07:30pm SW 23 27 - - - - - - - 15.0 1007.4 0.2
06/07:00pm SW 24 30 - - - - - - - 15.4 1007.3 0.2
06/06:30pm SW 24 29 - - - - - - - 15.3 1007.0 0.2
06/06:00pm SW 26 32 - - - - - - - 15.4 1006.8 0.2
06/05:30pm SW 27 32 - - - - - - - 15.5 1006.9 0.2
06/05:00pm SW 27 31 - - - - - - - 15.5 1006.9 0.2
06/04:30pm SW 27 33 - - - - - - - 15.6 1007.0 0.2
06/04:00pm SW 28 33 - - - - - - - 15.6 1007.4 0.2
06/03:30pm SW 28 32 - - - - - - - 15.7 1007.4 0.2
06/03:00pm SW 26 31 2 3.0 10 SW 20 Mostly cloudy Recent precip. 16.3 1007.6 0.2
06/02:30pm SW 29 34 - - - - - - - 16.2 1007.6 0.2
06/02:00pm SW 28 33 - - - - - - - 15.2 1007.8 0.0
06/01:30pm SW 26 31 - - - - - - - 16.0 1007.9 0.0
06/01:00pm SW 27 32 - - - - - - - 15.2 1008.1 0.0
06/12:30pm SW 23 28 - - - - - - - 15.4 1008.3 0.0
06/12:00pm SW 27 31 - - - - - - - 15.7 1008.1 0.0
06/11:30am SSW 28 33 - - - - - - - 15.5 1008.1 0.0
06/11:00am SW 27 32 - - - - - - - 15.6 1008.1 0.0
06/10:30am SW 27 32 - - - - - - - 15.7 1007.9 0.0
06/10:00am SSW 28 33 - - - - - - - 15.8 1007.9 0.0
06/09:30am SSW 28 34 - - - - - - - 15.8 1007.9 0.0
06/09:00am SSW 28 34 2 2.5 10 S 20 Mostly cloudy Distant precip. 15.8 1007.8 4.6
06/08:30am SSW 27 32 - - - - - - - 15.3 1007.8 4.6
06/08:00am SSW 25 30 - - - - - - - 15.4 1007.7 4.6
06/07:30am SW 26 31 - - - - - - - 15.4 1007.4 4.6
06/07:00am SW 28 32 - - - - - - - 14.6 1007.1 4.6
06/06:30am SW 28 32 - - - - - - - 15.4 1006.8 4.6
06/06:00am SSW 30 35 - - - - - - - 15.0 1006.5 4.6
06/05:30am SSW 27 32 - - - - - - - 15.1 1006.4 4.6
06/05:00am SW 27 30 - - - - - - - 15.7 1006.4 4.6
06/04:30am SW 25 30 - - - - - - - 15.4 1006.3 4.6
06/04:00am SW 25 28 - - - - - - - 15.4 1006.2 4.6
06/03:30am SW 24 29 - - - - - - - 15.3 1006.3 4.6
06/03:00am SW 26 30 - - - - - - - 15.4 1006.3 4.6
06/02:30am SW 26 30 - - - - - - - 15.5 1006.2 4.4
06/02:00am SSW 25 29 - - - - - - - 15.6 1006.4 4.4
06/01:30am SW 23 30 - - - - - - - 15.5 1006.5 4.4
06/01:00am SW 23 26 - - - - - - - 15.9 1006.5 3.4
06/12:30am SW 23 28 - - - - - - - 16.1 1006.9 3.4
06/12:00am SW 25 30 - - - - - - - 16.2 1007.0 3.4
 
Date/Time
EDT
Wind Sea
Height
m
Swell Vis
km
Cloud Weather Temp
°C
Press
MSL
hPa
Rain since
9am
mm
Dir  Spd
kts
Gust
kts
Height
m
Period
s
Dir
05/11:30pm SW 25 29 - - - - - - - 16.3 1007.1 3.4
05/11:00pm SW 24 28 - - - - - - - 16.4 1007.1 3.4
05/10:30pm SW 25 30 - - - - - - - 16.6 1007.0 3.4
05/10:00pm WSW 25 29 - - - - - - - 16.5 1006.9 3.4
05/09:30pm WSW 24 28 - - - - - - - 16.5 1006.8 3.4
05/09:00pm WSW 23 29 - - - - - - - 16.6 1006.7 3.4
05/08:30pm SW 25 31 - - - - - - - 16.5 1006.6 3.4
05/08:00pm WSW 23 28 - - - - - - - 17.2 1006.4 3.4
05/07:30pm SW 20 24 - - - - - - - 17.1 1006.1 3.4
05/07:00pm SW 24 29 - - - - - - - 17.3 1006.0 3.4
05/06:30pm SW 24 28 - - - - - - - 17.2 1005.8 3.4
05/06:00pm SW 22 26 - - - - - - - 17.0 1005.4 3.4
05/05:30pm SW 22 25 - - - - - - - 16.8 1005.3 3.4
05/05:00pm SW 16 22 - - - - - - - 17.0 1005.7 3.4
05/04:30pm SW 15 18 - - - - - - - 16.4 1005.4 3.4
05/04:00pm WSW 14 18 - - - - - - - 16.1 1005.7 3.4
05/03:30pm SW 19 23 - - - - - - - 16.3 1005.3 1.4
05/03:00pm SW 20 24 1 1.5 10 NE 15 Cloudy Rain 16.6 1005.4 0.6
05/02:30pm SW 21 26 - - - - - - - 17.0 1005.5 0.0
05/02:00pm SW 23 29 - - - - - - - 17.2 1005.3 0.0
05/01:30pm SW 20 24 - - - - - - - 17.4 1005.2 0.0
05/01:00pm SW 20 23 - - - - - - - 17.4 1005.4 0.0
05/12:30pm SW 20 25 - - - - - - - 17.4 1005.2 0.0
05/12:00pm SW 22 26 - - - - - - - 17.6 1005.3 0.0
05/11:30am SW 25 31 - - - - - - - 17.9 1005.1 0.0
05/11:10am SW 21 29 - - - - - - - 18.0 1005.4 0.0
05/11:00am SW 13 17 - - - - - - - 18.3 1005.5 0.0
05/10:30am SW 18 21 - - - - - - - 18.2 1004.9 0.0
05/10:00am SW 15 19 - - - - - - - 18.6 1004.6 0.0
05/09:30am SSW 17 22 - - - - - - - 18.9 1004.7 0.0
05/09:23am SSW 15 22 - - - - - - - 19.0 1004.8 0.0
05/09:00am NNE 9 11 - - - - - - - 18.6 1004.0 0.0
05/08:30am NNE 13 15 - - - - - - - 18.8 1003.9 0.0
05/08:00am NNE 15 17 - - - - - - - 18.7 1003.4 0.0
05/07:30am NNE 14 17 - - - - - - - 18.5 1003.5 0.0
05/07:00am NNE 15 19 - - - - - - - 18.3 1003.6 0.0
05/06:30am NNE 17 20 - - - - - - - 17.7 1003.6 0.0
05/06:00am NNE 17 20 - - - - - - - 17.3 1003.7 0.0
05/05:30am NNE 19 23 - - - - - - - 17.3 1003.6 0.0
05/05:00am NNE 22 27 - - - - - - - 17.5 1003.6 0.0
05/04:30am NNE 15 19 - - - - - - - 17.6 1004.3 0.0
05/04:00am N 15 21 - - - - - - - 17.8 1004.9 0.0
05/03:30am NNE 24 29 - - - - - - - 17.8 1004.4 0.0
05/03:00am NNE 25 30 - - - - - - - 17.9 1004.8 0.0
05/02:30am NNE 19 25 - - - - - - - 17.8 1005.6 0.0
05/02:00am NNE 22 27 - - - - - - - 18.0 1006.5 0.0
05/01:30am NNE 27 32 - - - - - - - 18.0 1006.4 0.0
05/01:11am NNE 20 29 - - - - - - - 17.9 1007.1 0.0
05/01:00am NNE 16 19 - - - - - - - 17.9 1007.9 0.0
05/12:30am NNE 17 22 - - - - - - - 17.9 1008.5 0.0
05/12:00am NNE 15 18 - - - - - - - 17.9 1009.1 0.0
 
Date/Time
EDT
Wind Sea
Height
m
Swell Vis
km
Cloud Weather Temp
°C
Press
MSL
hPa
Rain since
9am
mm
Dir  Spd
kts
Gust
kts
Height
m
Period
s
Dir
04/11:30pm NNE 18 23 - - - - - - - 18.0 1009.5 0.0
04/11:00pm NNE 16 21 - - - - - - - 18.1 1010.1 0.0
04/10:30pm NNE 18 25 - - - - - - - 18.1 1010.2 0.0

Other formats

Comma delimited format used in spreadsheet applications
http://www.bom.gov.au/fwo/IDV60701/IDV60701.94933.axf

JavaScript Object Notation format (JSON) in row-major order
http://www.bom.gov.au/fwo/IDV60701/IDV60701.94933.json

Data quality

Most of these data are generated automatically and are frequently updated. Quality checks on data are not normally performed. It is possible for incorrect values to appear. Refer to information at About Latest Weather Observations and please check the disclaimer before using these data.